Rentchler, Illinois
Current Conditions -  °F | °C
As of 4:58 AM on Friday 31 Oct 2014 (Local Time) from KBLV Reporting Station
Broken Clouds Broken Clouds  
Wind Chill: 44°   Ceiling: 7500
Heat Index: 46°   Visibility: 10mi
Dew Point: 46°   Wind: 5mph
Humidity: 99%   Direction: NA
Pressure: 30.09"   Gusts: NA
Location:  38.5093°N, 89.8955°W
Report Text: KBLV 310958Z AUTO VRB04KT 10SM BKN075 08/08 A3009 RMK AO2 SLP193 T00800079
Loading
Personal Weather Stations






























Interactive Weather Map
Tropical Storm Tracking
New forecast layout! Learn more

10-Day Weather Forecast

Advertisements
Track Severe Weather on mobile